Aeroporto :
LOGIN :

Iscrizione | Disclaimer

   EN    FR    IT 

 










Sommario :    VFR   VFR Marginale   IFR   IFR Intensivo   IFR Molto Intensivo
Visibilità : 
Base nubi : 
>= 8 km
>= 3000ft
5 / 8 km
1000 / 3000 ft
1500m / 5 km
500 / 1000 ft
800 / 1500m
200 / 500 ft
< 800m
< 200 ft
Simboli :   Temporali  Nebbia  Neve Forte  Precipitazioni Forti  Vento > 20 kt
SIGMETs :   Varie  Temporali  Ghiacco  Turbolenza  Onda orograficha  Ceneri Vulcaniche






- Altitudine del aeroporto : 505 ft
- Codice IATA : SXB


LFST - Strasbourg

ULTIMO METAR :
  • 180030Z AUTO 25007KT 9999 FEW035 BKN140 07/04 Q1025 NOSIG

METARs OBSOLETI :
  • 180000Z AUTO 23005KT 9999 FEW035 SCT042 BKN064 06/04 Q1024 NOSIG
  • 172330Z AUTO 26005KT 9999 FEW035 OVC064 07/04 Q1024 NOSIG
  • 172300Z AUTO VRB03KT 9999 FEW036 BKN066 BKN120 07/04 Q1024 NOSIG
  • 172230Z AUTO VRB02KT 9999 FEW036 SCT054 BKN064 08/04 Q1024 NOSIG
  • 172200Z AUTO 00000KT 9999 SCT037 BKN052 BKN062 07/04 Q1023 TEMPO FEW030TCU
  • 172130Z AUTO VRB02KT 9999 BKN038 BKN050 BKN100 08/05 Q1023 TEMPO FEW030TCU

TAF TAF LFST
Valido dal 18 a 00 ore il 19 a 00 ore UTC


172300Z 1800/1824 23005KT 9999 BKN030
PROB30
TEMPO 1809/1815 -SHRA FEW025TCU



MetMap, La meteo Aeronautica in un colpo d'occhio ! - Copyright ORBIFLY Dicembre 2007 - Disclaimer

ORBIFLY MET'MAP TEAM :

Programmazione e sviluppo : Alexandra Zaïnal
Concezione : Baudouin d'Aumeries
Aiuto per la programmazione : Marc-Olivier Méhu
Supporto tecnico e logistico : Manuel Goepfert
Aiuto per la traduzione : Arnaldo La Scala

Contatto : metmap@orbifly.com




FONTI E CREDITI :

   NOAA